sensor_id;sensor_type;location;lat;lon;timestamp;P1;durP1;ratioP1;P2;durP2;ratioP2
12316;SDS011;6222;50.866;6.744;2022-07-29T00:01:23;3.50;;;1.23;;
12316;SDS011;6222;50.866;6.744;2022-07-29T00:03:50;4.30;;;1.00;;
12316;SDS011;6222;50.866;6.744;2022-07-29T00:06:17;2.03;;;1.35;;
12316;SDS011;6222;50.866;6.744;2022-07-29T00:08:46;3.65;;;1.20;;
12316;SDS011;6222;50.866;6.744;2022-07-29T00:11:13;1.27;;;0.98;;
12316;SDS011;6222;50.866;6.744;2022-07-29T00:13:41;2.20;;;1.20;;
12316;SDS011;6222;50.866;6.744;2022-07-29T00:16:08;2.05;;;1.30;;
12316;SDS011;6222;50.866;6.744;2022-07-29T00:18:36;1.98;;;1.00;;
12316;SDS011;6222;50.866;6.744;2022-07-29T00:21:04;2.80;;;1.20;;
12316;SDS011;6222;50.866;6.744;2022-07-29T00:23:31;4.85;;;1.20;;
12316;SDS011;6222;50.866;6.744;2022-07-29T00:25:58;3.47;;;1.23;;
12316;SDS011;6222;50.866;6.744;2022-07-29T00:28:25;3.30;;;1.20;;
12316;SDS011;6222;50.866;6.744;2022-07-29T00:30:54;3.55;;;1.33;;
12316;SDS011;6222;50.866;6.744;2022-07-29T00:33:21;1.92;;;1.10;;
12316;SDS011;6222;50.866;6.744;2022-07-29T00:35:48;3.15;;;1.08;;
12316;SDS011;6222;50.866;6.744;2022-07-29T00:38:15;2.30;;;1.10;;
12316;SDS011;6222;50.866;6.744;2022-07-29T00:40:43;3.03;;;1.20;;
12316;SDS011;6222;50.866;6.744;2022-07-29T00:43:10;5.30;;;1.50;;
12316;SDS011;6222;50.866;6.744;2022-07-29T00:45:38;3.10;;;1.30;;
12316;SDS011;6222;50.866;6.744;2022-07-29T00:48:07;2.08;;;1.15;;
12316;SDS011;6222;50.866;6.744;2022-07-29T00:50:34;2.20;;;1.23;;
12316;SDS011;6222;50.866;6.744;2022-07-29T00:53:02;1.77;;;1.30;;
12316;SDS011;6222;50.866;6.744;2022-07-29T00:55:29;2.90;;;1.30;;
12316;SDS011;6222;50.866;6.744;2022-07-29T00:57:57;4.05;;;1.90;;
12316;SDS011;6222;50.866;6.744;2022-07-29T01:00:26;5.07;;;1.60;;
12316;SDS011;6222;50.866;6.744;2022-07-29T01:02:53;4.25;;;2.03;;
12316;SDS011;6222;50.866;6.744;2022-07-29T01:05:23;5.22;;;2.03;;
12316;SDS011;6222;50.866;6.744;2022-07-29T01:07:51;4.10;;;1.80;;
12316;SDS011;6222;50.866;6.744;2022-07-29T01:10:19;6.38;;;1.67;;
12316;SDS011;6222;50.866;6.744;2022-07-29T01:12:47;4.22;;;1.50;;
12316;SDS011;6222;50.866;6.744;2022-07-29T01:15:15;3.72;;;1.52;;
12316;SDS011;6222;50.866;6.744;2022-07-29T01:17:43;3.78;;;1.50;;
12316;SDS011;6222;50.866;6.744;2022-07-29T01:20:13;2.50;;;1.45;;
12316;SDS011;6222;50.866;6.744;2022-07-29T01:22:46;3.90;;;1.50;;
12316;SDS011;6222;50.866;6.744;2022-07-29T01:28:16;2.67;;;1.33;;
12316;SDS011;6222;50.866;6.744;2022-07-29T01:30:47;3.15;;;1.58;;
12316;SDS011;6222;50.866;6.744;2022-07-29T01:33:17;2.78;;;1.70;;
12316;SDS011;6222;50.866;6.744;2022-07-29T01:36:00;4.55;;;1.70;;
12316;SDS011;6222;50.866;6.744;2022-07-29T01:38:28;4.53;;;1.88;;
12316;SDS011;6222;50.866;6.744;2022-07-29T01:40:58;4.68;;;1.70;;
12316;SDS011;6222;50.866;6.744;2022-07-29T01:43:34;4.35;;;1.75;;
12316;SDS011;6222;50.866;6.744;2022-07-29T01:46:06;3.50;;;1.70;;
12316;SDS011;6222;50.866;6.744;2022-07-29T01:48:36;5.70;;;1.85;;
12316;SDS011;6222;50.866;6.744;2022-07-29T01:51:04;4.28;;;1.88;;
12316;SDS011;6222;50.866;6.744;2022-07-29T01:53:33;4.55;;;1.88;;
12316;SDS011;6222;50.866;6.744;2022-07-29T01:56:01;5.50;;;2.40;;
12316;SDS011;6222;50.866;6.744;2022-07-29T01:58:29;5.13;;;1.73;;
12316;SDS011;6222;50.866;6.744;2022-07-29T02:00:58;2.92;;;1.80;;
12316;SDS011;6222;50.866;6.744;2022-07-29T02:03:27;4.10;;;1.53;;
12316;SDS011;6222;50.866;6.744;2022-07-29T02:05:55;4.88;;;1.90;;
12316;SDS011;6222;50.866;6.744;2022-07-29T02:08:23;4.57;;;1.90;;
12316;SDS011;6222;50.866;6.744;2022-07-29T02:10:51;2.63;;;1.50;;
12316;SDS011;6222;50.866;6.744;2022-07-29T02:13:18;4.97;;;1.77;;
12316;SDS011;6222;50.866;6.744;2022-07-29T02:15:47;5.63;;;2.00;;
12316;SDS011;6222;50.866;6.744;2022-07-29T02:18:16;4.20;;;1.75;;
12316;SDS011;6222;50.866;6.744;2022-07-29T02:20:46;3.28;;;1.63;;
12316;SDS011;6222;50.866;6.744;2022-07-29T02:23:14;4.07;;;1.53;;
12316;SDS011;6222;50.866;6.744;2022-07-29T02:25:43;4.10;;;1.70;;
12316;SDS011;6222;50.866;6.744;2022-07-29T02:28:10;3.33;;;1.77;;
12316;SDS011;6222;50.866;6.744;2022-07-29T02:30:39;3.60;;;1.60;;
12316;SDS011;6222;50.866;6.744;2022-07-29T02:33:07;3.72;;;1.60;;
12316;SDS011;6222;50.866;6.744;2022-07-29T02:35:35;3.85;;;1.50;;
12316;SDS011;6222;50.866;6.744;2022-07-29T02:38:04;5.03;;;1.77;;
12316;SDS011;6222;50.866;6.744;2022-07-29T02:40:49;4.60;;;1.40;;
12316;SDS011;6222;50.866;6.744;2022-07-29T02:43:17;4.38;;;1.75;;
12316;SDS011;6222;50.866;6.744;2022-07-29T02:45:46;3.30;;;1.50;;
12316;SDS011;6222;50.866;6.744;2022-07-29T02:48:14;3.97;;;1.27;;
12316;SDS011;6222;50.866;6.744;2022-07-29T02:50:42;4.15;;;1.42;;
12316;SDS011;6222;50.866;6.744;2022-07-29T02:53:14;2.88;;;1.33;;
12316;SDS011;6222;50.866;6.744;2022-07-29T02:55:43;2.97;;;1.40;;
12316;SDS011;6222;50.866;6.744;2022-07-29T02:58:12;3.78;;;1.58;;
12316;SDS011;6222;50.866;6.744;2022-07-29T03:00:40;2.83;;;1.33;;
12316;SDS011;6222;50.866;6.744;2022-07-29T03:03:08;5.70;;;1.60;;
12316;SDS011;6222;50.866;6.744;2022-07-29T03:05:37;2.65;;;1.30;;
12316;SDS011;6222;50.866;6.744;2022-07-29T03:08:05;3.20;;;1.33;;
12316;SDS011;6222;50.866;6.744;2022-07-29T03:10:35;3.25;;;1.40;;
12316;SDS011;6222;50.866;6.744;2022-07-29T03:13:04;2.15;;;1.40;;
12316;SDS011;6222;50.866;6.744;2022-07-29T03:15:32;3.40;;;1.20;;
12316;SDS011;6222;50.866;6.744;2022-07-29T03:17:59;3.25;;;1.30;;
12316;SDS011;6222;50.866;6.744;2022-07-29T03:20:27;4.20;;;1.40;;
12316;SDS011;6222;50.866;6.744;2022-07-29T03:22:54;2.97;;;1.42;;
12316;SDS011;6222;50.866;6.744;2022-07-29T03:25:21;3.35;;;1.20;;
12316;SDS011;6222;50.866;6.744;2022-07-29T03:27:49;2.35;;;1.40;;
12316;SDS011;6222;50.866;6.744;2022-07-29T03:30:17;4.85;;;1.23;;
12316;SDS011;6222;50.866;6.744;2022-07-29T03:32:44;4.95;;;1.50;;
12316;SDS011;6222;50.866;6.744;2022-07-29T03:35:11;2.83;;;1.50;;
12316;SDS011;6222;50.866;6.744;2022-07-29T03:37:39;3.92;;;1.50;;
12316;SDS011;6222;50.866;6.744;2022-07-29T03:40:07;3.20;;;1.40;;
12316;SDS011;6222;50.866;6.744;2022-07-29T03:42:35;3.67;;;1.65;;
12316;SDS011;6222;50.866;6.744;2022-07-29T03:45:05;3.20;;;1.40;;
12316;SDS011;6222;50.866;6.744;2022-07-29T03:47:34;6.50;;;1.85;;
12316;SDS011;6222;50.866;6.744;2022-07-29T03:50:05;3.35;;;1.50;;
12316;SDS011;6222;50.866;6.744;2022-07-29T03:52:32;2.55;;;1.40;;
12316;SDS011;6222;50.866;6.744;2022-07-29T03:55:00;4.95;;;1.60;;
12316;SDS011;6222;50.866;6.744;2022-07-29T03:57:28;3.23;;;1.60;;
12316;SDS011;6222;50.866;6.744;2022-07-29T03:59:55;4.07;;;1.50;;
12316;SDS011;6222;50.866;6.744;2022-07-29T04:02:24;3.03;;;1.50;;
12316;SDS011;6222;50.866;6.744;2022-07-29T04:04:52;3.92;;;1.60;;
12316;SDS011;6222;50.866;6.744;2022-07-29T04:07:19;4.57;;;1.98;;
12316;SDS011;6222;50.866;6.744;2022-07-29T04:09:46;3.60;;;1.73;;
12316;SDS011;6222;50.866;6.744;2022-07-29T04:12:13;3.75;;;1.90;;
12316;SDS011;6222;50.866;6.744;2022-07-29T04:14:40;4.43;;;1.60;;
12316;SDS011;6222;50.866;6.744;2022-07-29T04:17:08;4.07;;;1.38;;
12316;SDS011;6222;50.866;6.744;2022-07-29T04:19:36;2.93;;;1.30;;
12316;SDS011;6222;50.866;6.744;2022-07-29T04:22:03;4.32;;;1.52;;
12316;SDS011;6222;50.866;6.744;2022-07-29T04:24:31;2.97;;;1.20;;
12316;SDS011;6222;50.866;6.744;2022-07-29T04:26:58;3.35;;;1.30;;
12316;SDS011;6222;50.866;6.744;2022-07-29T04:29:25;3.50;;;1.45;;
12316;SDS011;6222;50.866;6.744;2022-07-29T04:31:52;2.35;;;1.05;;
12316;SDS011;6222;50.866;6.744;2022-07-29T04:34:19;3.63;;;1.63;;
12316;SDS011;6222;50.866;6.744;2022-07-29T04:36:48;1.65;;;1.20;;
12316;SDS011;6222;50.866;6.744;2022-07-29T04:39:15;2.90;;;1.30;;
12316;SDS011;6222;50.866;6.744;2022-07-29T04:41:44;4.68;;;1.38;;
12316;SDS011;6222;50.866;6.744;2022-07-29T04:44:12;3.20;;;1.25;;
12316;SDS011;6222;50.866;6.744;2022-07-29T04:46:39;3.15;;;1.45;;
12316;SDS011;6222;50.866;6.744;2022-07-29T04:49:06;4.70;;;1.35;;
12316;SDS011;6222;50.866;6.744;2022-07-29T04:51:33;4.43;;;1.60;;
12316;SDS011;6222;50.866;6.744;2022-07-29T04:54:02;2.63;;;1.20;;
12316;SDS011;6222;50.866;6.744;2022-07-29T04:56:29;2.20;;;1.10;;
12316;SDS011;6222;50.866;6.744;2022-07-29T04:58:56;3.97;;;1.60;;
12316;SDS011;6222;50.866;6.744;2022-07-29T05:01:24;3.87;;;1.20;;
12316;SDS011;6222;50.866;6.744;2022-07-29T05:03:51;3.57;;;1.50;;
12316;SDS011;6222;50.866;6.744;2022-07-29T05:06:18;2.87;;;1.30;;
12316;SDS011;6222;50.866;6.744;2022-07-29T05:08:45;3.30;;;1.67;;
12316;SDS011;6222;50.866;6.744;2022-07-29T05:11:14;2.58;;;1.50;;
12316;SDS011;6222;50.866;6.744;2022-07-29T05:13:41;3.80;;;1.70;;
12316;SDS011;6222;50.866;6.744;2022-07-29T05:16:08;3.67;;;1.52;;
12316;SDS011;6222;50.866;6.744;2022-07-29T05:18:35;2.65;;;1.38;;
12316;SDS011;6222;50.866;6.744;2022-07-29T05:21:02;3.50;;;1.50;;
12316;SDS011;6222;50.866;6.744;2022-07-29T05:23:29;3.43;;;1.67;;
12316;SDS011;6222;50.866;6.744;2022-07-29T05:25:57;3.33;;;1.60;;
12316;SDS011;6222;50.866;6.744;2022-07-29T05:28:27;3.75;;;1.67;;
12316;SDS011;6222;50.866;6.744;2022-07-29T05:30:54;3.95;;;1.70;;
12316;SDS011;6222;50.866;6.744;2022-07-29T05:33:22;4.40;;;2.03;;
12316;SDS011;6222;50.866;6.744;2022-07-29T05:35:49;3.45;;;1.60;;
12316;SDS011;6222;50.866;6.744;2022-07-29T05:38:16;4.50;;;2.30;;
12316;SDS011;6222;50.866;6.744;2022-07-29T05:40:43;3.38;;;1.60;;
12316;SDS011;6222;50.866;6.744;2022-07-29T05:43:10;3.33;;;1.80;;
12316;SDS011;6222;50.866;6.744;2022-07-29T05:45:39;3.75;;;1.80;;
12316;SDS011;6222;50.866;6.744;2022-07-29T05:48:06;3.25;;;1.60;;
12316;SDS011;6222;50.866;6.744;2022-07-29T05:50:34;5.18;;;1.85;;
12316;SDS011;6222;50.866;6.744;2022-07-29T05:53:01;4.32;;;1.67;;
12316;SDS011;6222;50.866;6.744;2022-07-29T05:55:28;3.72;;;1.77;;
12316;SDS011;6222;50.866;6.744;2022-07-29T05:57:56;3.85;;;1.50;;
12316;SDS011;6222;50.866;6.744;2022-07-29T06:00:23;3.13;;;1.70;;
12316;SDS011;6222;50.866;6.744;2022-07-29T06:02:51;5.20;;;1.75;;
12316;SDS011;6222;50.866;6.744;2022-07-29T06:05:18;3.78;;;1.70;;
12316;SDS011;6222;50.866;6.744;2022-07-29T06:07:46;3.22;;;1.67;;
12316;SDS011;6222;50.866;6.744;2022-07-29T06:10:14;8.02;;;7.03;;
12316;SDS011;6222;50.866;6.744;2022-07-29T06:12:41;3.65;;;1.85;;
12316;SDS011;6222;50.866;6.744;2022-07-29T06:15:08;4.10;;;1.80;;
12316;SDS011;6222;50.866;6.744;2022-07-29T06:17:36;4.53;;;2.00;;
12316;SDS011;6222;50.866;6.744;2022-07-29T06:20:05;3.60;;;2.22;;
12316;SDS011;6222;50.866;6.744;2022-07-29T06:22:32;5.68;;;2.10;;
12316;SDS011;6222;50.866;6.744;2022-07-29T06:25:00;4.38;;;2.00;;
12316;SDS011;6222;50.866;6.744;2022-07-29T06:27:27;3.45;;;1.88;;
12316;SDS011;6222;50.866;6.744;2022-07-29T06:29:55;4.30;;;2.10;;
12316;SDS011;6222;50.866;6.744;2022-07-29T06:32:22;4.57;;;1.90;;
12316;SDS011;6222;50.866;6.744;2022-07-29T06:34:50;3.60;;;1.83;;
12316;SDS011;6222;50.866;6.744;2022-07-29T06:37:18;4.43;;;1.80;;
12316;SDS011;6222;50.866;6.744;2022-07-29T06:39:47;5.33;;;1.90;;
12316;SDS011;6222;50.866;6.744;2022-07-29T06:42:34;4.53;;;2.03;;
12316;SDS011;6222;50.866;6.744;2022-07-29T06:45:01;4.00;;;2.30;;
12316;SDS011;6222;50.866;6.744;2022-07-29T06:47:28;4.20;;;2.20;;
12316;SDS011;6222;50.866;6.744;2022-07-29T06:49:55;4.68;;;2.05;;
12316;SDS011;6222;50.866;6.744;2022-07-29T06:52:24;4.20;;;2.10;;
12316;SDS011;6222;50.866;6.744;2022-07-29T06:54:51;4.97;;;2.08;;
12316;SDS011;6222;50.866;6.744;2022-07-29T06:57:20;4.32;;;2.10;;
12316;SDS011;6222;50.866;6.744;2022-07-29T06:59:47;4.55;;;2.17;;
12316;SDS011;6222;50.866;6.744;2022-07-29T07:02:14;4.00;;;2.40;;
12316;SDS011;6222;50.866;6.744;2022-07-29T07:04:41;4.13;;;2.30;;
12316;SDS011;6222;50.866;6.744;2022-07-29T07:07:08;5.30;;;2.60;;
12316;SDS011;6222;50.866;6.744;2022-07-29T07:09:37;6.47;;;2.40;;
12316;SDS011;6222;50.866;6.744;2022-07-29T07:12:04;5.30;;;3.03;;
12316;SDS011;6222;50.866;6.744;2022-07-29T07:14:31;4.25;;;2.20;;
12316;SDS011;6222;50.866;6.744;2022-07-29T07:16:59;4.15;;;2.25;;
12316;SDS011;6222;50.866;6.744;2022-07-29T07:19:28;3.90;;;2.10;;
12316;SDS011;6222;50.866;6.744;2022-07-29T07:21:55;4.90;;;2.17;;
12316;SDS011;6222;50.866;6.744;2022-07-29T07:24:22;4.83;;;2.40;;
12316;SDS011;6222;50.866;6.744;2022-07-29T07:26:51;4.28;;;2.33;;
12316;SDS011;6222;50.866;6.744;2022-07-29T07:29:18;5.38;;;2.38;;
12316;SDS011;6222;50.866;6.744;2022-07-29T07:31:45;5.88;;;2.70;;
12316;SDS011;6222;50.866;6.744;2022-07-29T07:34:13;4.60;;;2.83;;
12316;SDS011;6222;50.866;6.744;2022-07-29T07:36:40;4.97;;;2.60;;
12316;SDS011;6222;50.866;6.744;2022-07-29T07:39:07;5.38;;;2.80;;
12316;SDS011;6222;50.866;6.744;2022-07-29T07:41:34;6.78;;;3.03;;
12316;SDS011;6222;50.866;6.744;2022-07-29T07:44:03;4.05;;;2.50;;
12316;SDS011;6222;50.866;6.744;2022-07-29T07:46:31;5.57;;;3.17;;
12316;SDS011;6222;50.866;6.744;2022-07-29T07:48:58;5.35;;;2.80;;
12316;SDS011;6222;50.866;6.744;2022-07-29T07:51:25;7.07;;;3.22;;
12316;SDS011;6222;50.866;6.744;2022-07-29T07:53:53;5.93;;;3.10;;
12316;SDS011;6222;50.866;6.744;2022-07-29T07:56:20;4.47;;;2.80;;
12316;SDS011;6222;50.866;6.744;2022-07-29T07:58:47;5.80;;;3.17;;
12316;SDS011;6222;50.866;6.744;2022-07-29T08:01:15;5.85;;;3.15;;
12316;SDS011;6222;50.866;6.744;2022-07-29T08:03:44;5.57;;;3.00;;
12316;SDS011;6222;50.866;6.744;2022-07-29T08:06:11;5.18;;;2.80;;
12316;SDS011;6222;50.866;6.744;2022-07-29T08:08:39;4.78;;;2.78;;
12316;SDS011;6222;50.866;6.744;2022-07-29T08:11:06;6.73;;;3.40;;
12316;SDS011;6222;50.866;6.744;2022-07-29T08:13:36;6.32;;;3.30;;
12316;SDS011;6222;50.866;6.744;2022-07-29T08:16:04;6.68;;;3.65;;
12316;SDS011;6222;50.866;6.744;2022-07-29T08:18:39;5.35;;;3.15;;
12316;SDS011;6222;50.866;6.744;2022-07-29T08:21:06;7.50;;;3.83;;
12316;SDS011;6222;50.866;6.744;2022-07-29T08:23:33;7.25;;;3.78;;
12316;SDS011;6222;50.866;6.744;2022-07-29T08:26:03;6.30;;;3.27;;
12316;SDS011;6222;50.866;6.744;2022-07-29T08:28:31;7.50;;;3.50;;
12316;SDS011;6222;50.866;6.744;2022-07-29T08:30:58;7.95;;;3.47;;
12316;SDS011;6222;50.866;6.744;2022-07-29T08:33:25;8.80;;;3.72;;
12316;SDS011;6222;50.866;6.744;2022-07-29T08:35:54;7.22;;;5.43;;
12316;SDS011;6222;50.866;6.744;2022-07-29T08:38:21;5.43;;;3.60;;
12316;SDS011;6222;50.866;6.744;2022-07-29T08:40:48;6.13;;;3.47;;
12316;SDS011;6222;50.866;6.744;2022-07-29T08:43:15;5.75;;;4.13;;
12316;SDS011;6222;50.866;6.744;2022-07-29T08:45:43;9.57;;;4.28;;
12316;SDS011;6222;50.866;6.744;2022-07-29T08:48:11;6.97;;;3.80;;
12316;SDS011;6222;50.866;6.744;2022-07-29T08:50:38;7.73;;;3.63;;
12316;SDS011;6222;50.866;6.744;2022-07-29T08:53:09;6.25;;;3.95;;
12316;SDS011;6222;50.866;6.744;2022-07-29T08:55:38;5.72;;;3.75;;
12316;SDS011;6222;50.866;6.744;2022-07-29T08:58:06;6.28;;;3.60;;
12316;SDS011;6222;50.866;6.744;2022-07-29T09:00:33;6.53;;;3.88;;
12316;SDS011;6222;50.866;6.744;2022-07-29T09:03:01;6.75;;;3.53;;
12316;SDS011;6222;50.866;6.744;2022-07-29T09:05:31;4.65;;;3.30;;
12316;SDS011;6222;50.866;6.744;2022-07-29T09:07:58;7.95;;;3.95;;
12316;SDS011;6222;50.866;6.744;2022-07-29T09:10:27;6.18;;;3.88;;
12316;SDS011;6222;50.866;6.744;2022-07-29T09:12:55;6.18;;;3.13;;
12316;SDS011;6222;50.866;6.744;2022-07-29T09:15:22;7.10;;;3.20;;
12316;SDS011;6222;50.866;6.744;2022-07-29T09:17:49;6.70;;;3.50;;
12316;SDS011;6222;50.866;6.744;2022-07-29T09:20:17;7.85;;;3.35;;
12316;SDS011;6222;50.866;6.744;2022-07-29T09:22:45;6.50;;;3.00;;
12316;SDS011;6222;50.866;6.744;2022-07-29T09:25:14;5.45;;;2.83;;
12316;SDS011;6222;50.866;6.744;2022-07-29T09:27:45;5.28;;;2.72;;
12316;SDS011;6222;50.866;6.744;2022-07-29T09:30:16;5.38;;;2.72;;
12316;SDS011;6222;50.866;6.744;2022-07-29T09:32:54;6.22;;;2.90;;
12316;SDS011;6222;50.866;6.744;2022-07-29T09:35:22;6.28;;;2.28;;
12316;SDS011;6222;50.866;6.744;2022-07-29T09:37:49;7.75;;;2.15;;
12316;SDS011;6222;50.866;6.744;2022-07-29T09:40:18;3.40;;;2.33;;
12316;SDS011;6222;50.866;6.744;2022-07-29T09:42:47;2.72;;;2.03;;
12316;SDS011;6222;50.866;6.744;2022-07-29T09:45:25;4.15;;;2.20;;
12316;SDS011;6222;50.866;6.744;2022-07-29T09:47:53;4.43;;;2.45;;
12316;SDS011;6222;50.866;6.744;2022-07-29T09:50:22;3.72;;;2.15;;
12316;SDS011;6222;50.866;6.744;2022-07-29T09:52:51;3.95;;;2.20;;
12316;SDS011;6222;50.866;6.744;2022-07-29T09:55:18;3.80;;;2.40;;
12316;SDS011;6222;50.866;6.744;2022-07-29T09:57:47;3.97;;;1.90;;
12316;SDS011;6222;50.866;6.744;2022-07-29T10:00:15;4.03;;;2.05;;
12316;SDS011;6222;50.866;6.744;2022-07-29T10:02:43;4.77;;;2.20;;
12316;SDS011;6222;50.866;6.744;2022-07-29T10:05:18;4.07;;;2.30;;
12316;SDS011;6222;50.866;6.744;2022-07-29T10:07:46;5.43;;;2.80;;
12316;SDS011;6222;50.866;6.744;2022-07-29T10:10:18;4.40;;;2.90;;
12316;SDS011;6222;50.866;6.744;2022-07-29T10:12:50;4.57;;;2.60;;
12316;SDS011;6222;50.866;6.744;2022-07-29T10:15:17;6.10;;;2.90;;
12316;SDS011;6222;50.866;6.744;2022-07-29T10:17:45;6.20;;;2.90;;
12316;SDS011;6222;50.866;6.744;2022-07-29T10:20:13;4.53;;;2.70;;
12316;SDS011;6222;50.866;6.744;2022-07-29T10:22:41;3.97;;;2.80;;
12316;SDS011;6222;50.866;6.744;2022-07-29T10:25:09;4.30;;;2.53;;
12316;SDS011;6222;50.866;6.744;2022-07-29T10:27:36;4.53;;;2.60;;
12316;SDS011;6222;50.866;6.744;2022-07-29T10:30:06;4.93;;;2.75;;
12316;SDS011;6222;50.866;6.744;2022-07-29T10:32:42;4.82;;;2.50;;
12316;SDS011;6222;50.866;6.744;2022-07-29T10:40:52;4.82;;;2.40;;
12316;SDS011;6222;50.866;6.744;2022-07-29T10:43:44;3.58;;;2.53;;
12316;SDS011;6222;50.866;6.744;2022-07-29T10:46:14;5.00;;;3.00;;
12316;SDS011;6222;50.866;6.744;2022-07-29T10:51:33;5.50;;;2.45;;
12316;SDS011;6222;50.866;6.744;2022-07-29T10:54:17;3.85;;;2.50;;
12316;SDS011;6222;50.866;6.744;2022-07-29T10:56:44;3.77;;;2.30;;
12316;SDS011;6222;50.866;6.744;2022-07-29T10:59:24;5.22;;;2.40;;
12316;SDS011;6222;50.866;6.744;2022-07-29T11:01:54;4.10;;;2.58;;
12316;SDS011;6222;50.866;6.744;2022-07-29T11:07:07;4.65;;;2.58;;
12316;SDS011;6222;50.866;6.744;2022-07-29T11:09:34;5.10;;;2.40;;
12316;SDS011;6222;50.866;6.744;2022-07-29T11:12:02;3.97;;;2.15;;
12316;SDS011;6222;50.866;6.744;2022-07-29T11:17:18;4.15;;;2.20;;
12316;SDS011;6222;50.866;6.744;2022-07-29T11:19:45;3.80;;;2.10;;
12316;SDS011;6222;50.866;6.744;2022-07-29T11:22:30;5.93;;;2.50;;
12316;SDS011;6222;50.866;6.744;2022-07-29T11:25:12;4.10;;;2.30;;
12316;SDS011;6222;50.866;6.744;2022-07-29T11:27:39;3.08;;;1.80;;
12316;SDS011;6222;50.866;6.744;2022-07-29T11:30:07;2.97;;;2.00;;
12316;SDS011;6222;50.866;6.744;2022-07-29T11:32:36;5.15;;;2.17;;
12316;SDS011;6222;50.866;6.744;2022-07-29T11:35:11;2.85;;;2.00;;
12316;SDS011;6222;50.866;6.744;2022-07-29T11:37:39;4.25;;;2.10;;
12316;SDS011;6222;50.866;6.744;2022-07-29T11:40:10;4.80;;;2.43;;
12316;SDS011;6222;50.866;6.744;2022-07-29T11:42:41;4.15;;;1.88;;
12316;SDS011;6222;50.866;6.744;2022-07-29T11:45:09;2.93;;;1.90;;
12316;SDS011;6222;50.866;6.744;2022-07-29T11:47:40;3.55;;;1.90;;
12316;SDS011;6222;50.866;6.744;2022-07-29T11:50:08;3.63;;;1.90;;
12316;SDS011;6222;50.866;6.744;2022-07-29T11:52:36;4.07;;;2.17;;
12316;SDS011;6222;50.866;6.744;2022-07-29T11:55:08;2.47;;;1.70;;
12316;SDS011;6222;50.866;6.744;2022-07-29T11:57:36;3.92;;;1.98;;
12316;SDS011;6222;50.866;6.744;2022-07-29T12:00:04;2.70;;;1.50;;
12316;SDS011;6222;50.866;6.744;2022-07-29T12:02:40;3.30;;;1.63;;
12316;SDS011;6222;50.866;6.744;2022-07-29T12:05:08;2.72;;;1.60;;
12316;SDS011;6222;50.866;6.744;2022-07-29T12:07:36;3.38;;;1.67;;
12316;SDS011;6222;50.866;6.744;2022-07-29T12:10:04;2.70;;;1.88;;
12316;SDS011;6222;50.866;6.744;2022-07-29T12:12:31;2.22;;;1.70;;
12316;SDS011;6222;50.866;6.744;2022-07-29T12:15:09;2.58;;;1.67;;
12316;SDS011;6222;50.866;6.744;2022-07-29T12:17:36;2.25;;;1.48;;
12316;SDS011;6222;50.866;6.744;2022-07-29T12:20:06;2.73;;;1.70;;
12316;SDS011;6222;50.866;6.744;2022-07-29T12:22:34;3.78;;;1.65;;
12316;SDS011;6222;50.866;6.744;2022-07-29T12:25:03;4.30;;;1.80;;
12316;SDS011;6222;50.866;6.744;2022-07-29T12:27:31;2.53;;;1.42;;
12316;SDS011;6222;50.866;6.744;2022-07-29T12:29:59;3.00;;;1.63;;
12316;SDS011;6222;50.866;6.744;2022-07-29T12:32:31;2.28;;;1.40;;
12316;SDS011;6222;50.866;6.744;2022-07-29T12:34:58;4.55;;;1.42;;
12316;SDS011;6222;50.866;6.744;2022-07-29T12:37:27;2.58;;;1.45;;
12316;SDS011;6222;50.866;6.744;2022-07-29T12:39:54;3.33;;;1.65;;
12316;SDS011;6222;50.866;6.744;2022-07-29T12:42:21;2.45;;;1.60;;
12316;SDS011;6222;50.866;6.744;2022-07-29T12:44:49;3.60;;;1.50;;
12316;SDS011;6222;50.866;6.744;2022-07-29T12:47:17;3.23;;;1.50;;
12316;SDS011;6222;50.866;6.744;2022-07-29T12:49:45;2.17;;;1.40;;
12316;SDS011;6222;50.866;6.744;2022-07-29T12:52:29;2.45;;;1.60;;
12316;SDS011;6222;50.866;6.744;2022-07-29T12:54:57;2.27;;;1.57;;
12316;SDS011;6222;50.866;6.744;2022-07-29T12:57:26;2.30;;;1.50;;
12316;SDS011;6222;50.866;6.744;2022-07-29T13:00:00;3.67;;;1.75;;
12316;SDS011;6222;50.866;6.744;2022-07-29T13:02:28;2.63;;;1.65;;
12316;SDS011;6222;50.866;6.744;2022-07-29T13:04:55;2.70;;;1.60;;
12316;SDS011;6222;50.866;6.744;2022-07-29T13:07:23;2.70;;;1.55;;
12316;SDS011;6222;50.866;6.744;2022-07-29T13:09:53;3.22;;;1.50;;
12316;SDS011;6222;50.866;6.744;2022-07-29T13:12:20;2.20;;;1.70;;
12316;SDS011;6222;50.866;6.744;2022-07-29T13:14:48;2.33;;;1.50;;
12316;SDS011;6222;50.866;6.744;2022-07-29T13:17:15;4.20;;;1.80;;
12316;SDS011;6222;50.866;6.744;2022-07-29T13:19:44;3.00;;;1.80;;
12316;SDS011;6222;50.866;6.744;2022-07-29T13:22:11;3.03;;;2.20;;
12316;SDS011;6222;50.866;6.744;2022-07-29T13:24:45;5.20;;;1.95;;
12316;SDS011;6222;50.866;6.744;2022-07-29T13:27:14;3.22;;;1.88;;
12316;SDS011;6222;50.866;6.744;2022-07-29T13:29:42;4.10;;;2.30;;
12316;SDS011;6222;50.866;6.744;2022-07-29T13:32:09;4.30;;;2.60;;
12316;SDS011;6222;50.866;6.744;2022-07-29T13:34:36;4.72;;;2.88;;
12316;SDS011;6222;50.866;6.744;2022-07-29T13:37:04;4.40;;;2.87;;
12316;SDS011;6222;50.866;6.744;2022-07-29T13:39:31;4.47;;;2.83;;
12316;SDS011;6222;50.866;6.744;2022-07-29T13:41:58;5.70;;;3.10;;
12316;SDS011;6222;50.866;6.744;2022-07-29T13:44:27;6.53;;;3.20;;
12316;SDS011;6222;50.866;6.744;2022-07-29T13:46:54;5.93;;;3.28;;
12316;SDS011;6222;50.866;6.744;2022-07-29T13:49:23;5.68;;;3.63;;
12316;SDS011;6222;50.866;6.744;2022-07-29T13:51:51;5.95;;;3.60;;
12316;SDS011;6222;50.866;6.744;2022-07-29T13:54:18;5.57;;;3.70;;
12316;SDS011;6222;50.866;6.744;2022-07-29T13:56:45;7.75;;;4.40;;
12316;SDS011;6222;50.866;6.744;2022-07-29T13:59:12;4.85;;;3.13;;
12316;SDS011;6222;50.866;6.744;2022-07-29T14:01:41;4.93;;;3.20;;
12316;SDS011;6222;50.866;6.744;2022-07-29T14:04:08;6.15;;;3.20;;
12316;SDS011;6222;50.866;6.744;2022-07-29T14:06:36;6.07;;;3.43;;
12316;SDS011;6222;50.866;6.744;2022-07-29T14:09:03;4.72;;;3.05;;
12316;SDS011;6222;50.866;6.744;2022-07-29T14:11:31;5.43;;;2.63;;
12316;SDS011;6222;50.866;6.744;2022-07-29T14:13:58;3.95;;;2.90;;
12316;SDS011;6222;50.866;6.744;2022-07-29T14:16:25;4.70;;;3.05;;
12316;SDS011;6222;50.866;6.744;2022-07-29T14:18:54;4.72;;;3.03;;
12316;SDS011;6222;50.866;6.744;2022-07-29T14:21:21;4.57;;;3.30;;
12316;SDS011;6222;50.866;6.744;2022-07-29T14:23:48;5.03;;;2.80;;
12316;SDS011;6222;50.866;6.744;2022-07-29T14:26:17;6.45;;;3.28;;
12316;SDS011;6222;50.866;6.744;2022-07-29T14:28:44;7.00;;;3.30;;
12316;SDS011;6222;50.866;6.744;2022-07-29T14:31:11;5.43;;;2.67;;
12316;SDS011;6222;50.866;6.744;2022-07-29T14:33:38;5.63;;;2.58;;
12316;SDS011;6222;50.866;6.744;2022-07-29T14:36:07;5.65;;;2.78;;
12316;SDS011;6222;50.866;6.744;2022-07-29T14:38:34;4.45;;;2.30;;
12316;SDS011;6222;50.866;6.744;2022-07-29T14:41:02;5.55;;;2.95;;
12316;SDS011;6222;50.866;6.744;2022-07-29T14:43:29;3.65;;;1.90;;
12316;SDS011;6222;50.866;6.744;2022-07-29T14:45:57;3.00;;;1.90;;
12316;SDS011;6222;50.866;6.744;2022-07-29T14:48:24;5.15;;;1.80;;
12316;SDS011;6222;50.866;6.744;2022-07-29T14:50:51;4.55;;;1.95;;
12316;SDS011;6222;50.866;6.744;2022-07-29T14:53:21;3.83;;;2.30;;
12316;SDS011;6222;50.866;6.744;2022-07-29T14:55:48;2.92;;;1.67;;
12316;SDS011;6222;50.866;6.744;2022-07-29T14:58:15;3.78;;;2.08;;
12316;SDS011;6222;50.866;6.744;2022-07-29T15:00:43;5.00;;;1.67;;
12316;SDS011;6222;50.866;6.744;2022-07-29T15:03:10;3.20;;;1.75;;
12316;SDS011;6222;50.866;6.744;2022-07-29T15:05:37;4.28;;;1.77;;
12316;SDS011;6222;50.866;6.744;2022-07-29T15:08:04;3.20;;;1.65;;
12316;SDS011;6222;50.866;6.744;2022-07-29T15:10:34;3.17;;;1.70;;
12316;SDS011;6222;50.866;6.744;2022-07-29T15:13:01;2.58;;;1.52;;
12316;SDS011;6222;50.866;6.744;2022-07-29T15:15:29;2.78;;;1.60;;
12316;SDS011;6222;50.866;6.744;2022-07-29T15:17:56;3.70;;;1.77;;
12316;SDS011;6222;50.866;6.744;2022-07-29T15:20:23;2.70;;;1.35;;
12316;SDS011;6222;50.866;6.744;2022-07-29T15:22:52;3.15;;;1.80;;
12316;SDS011;6222;50.866;6.744;2022-07-29T15:25:20;3.13;;;1.65;;